Time;durP1;ratioP1;P1;durP2;ratioP2;P2;SDS_P1;SDS_P2;PMS_P1;PMS_P2;Temp;Humidity;BMP_temperature;BMP_pressure;BME280_temperature;BME280_humidity;BME280_pressure;Samples;Min_cycle;Max_cycle;Signal;HPM_P1;HPM_P2
2022/02/07 00:00:07;;;;;;;;;;;6.70;99.90;;;;;;4925871;29;19960;-84
2022/02/07 00:06:39;;;;;;;;;;;6.40;99.90;;;;;;4909701;29;19934;-85
2022/02/07 00:09:15;;;;;;;;;;;6.30;99.90;;;;;;4928714;29;19930;-85
2022/02/07 00:11:58;;;;;;;;;;;;;;;;;;;;;
2022/02/07 00:18:40;;;;;;;;;;;;;;;;;;;;;
2022/02/07 00:25:11;;;;;;;;;;;6.40;99.90;;;;;;4943385;29;19927;-84
2022/02/07 00:28:53;;;;;;;;;;;;;;;;;;;;;
2022/02/07 00:36:37;;;;;;;;;;;6.20;99.90;;;;;;4836078;29;19929;-85
2022/02/07 00:43:51;;;;;;;;;;;;;;;;;;;;;
2022/02/07 00:47:15;;;;;;;;;;;6.00;99.90;;;;;;4846039;29;19973;-85
2022/02/07 00:50:47;;;;;;;;;;;6.00;99.90;;;;;;4843370;29;19932;-85
2022/02/07 00:58:16;;;;;;;;;;;4.80;99.90;;;;;;4766761;30;20495;-85
2022/02/07 01:01:32;;;;;;;;;;;;;;;;;;;;;
2022/02/07 01:05:27;;;;;;;;;;;;;;;;;;;;;
2022/02/07 01:09:09;;;;;;;;;;;4.40;99.90;;;;;;4854759;29;19929;-85
2022/02/07 01:59:33;;;;;;;;;;;;;;;;;;;;;
2022/02/07 02:03:45;;;;;;;;;;;;;;;;;;;;;
2022/02/07 02:07:39;;;;;;;;;;;;;;;;;;;;;
2022/02/07 02:49:43;;;;;;;;;;;;;;;;;;;;;
2022/02/07 02:57:29;;;;;;;;;;;;;;;;;;;;;
2022/02/07 03:12:38;;;;;;;;;;;;;;;;;;;;;
2022/02/07 03:23:28;;;;;;;;;;;6.00;99.90;;;;;;4743440;30;20594;-86
2022/02/07 03:27:15;;;;;;;;;;;;;;;;;;;;;
2022/02/07 03:42:38;;;;;;;;;;;;;;;;;;;;;
2022/02/07 03:54:32;;;;;;;;;;;5.40;99.90;;;;;;4752392;30;19934;-85
2022/02/07 03:57:58;;;;;;;;;;;5.50;99.90;;;;;;4824575;29;20501;-85
2022/02/07 04:02:05;;;;;;;;;;;5.30;99.90;;;;;;4763810;30;19930;-84
2022/02/07 04:09:17;;;;;;;;;;;5.00;99.90;;;;;;4801315;30;19925;-85
2022/02/07 04:12:19;;;;;;;;;;;5.30;99.90;;;;;;4790892;30;19933;-86
2022/02/07 04:16:38;;;;;;;;;;;;;;;;;;;;;
2022/02/07 04:20:48;;;;;;;;;;;5.40;99.90;;;;;;4901984;29;19933;-85
2022/02/07 04:24:15;;;;;;;;;;;5.10;99.90;;;;;;4947713;29;19935;-85
2022/02/07 04:27:28;;;;;;;;;;;5.00;99.90;;;;;;4856171;29;19932;-85
2022/02/07 04:30:52;;;;;;;;;;;5.00;99.90;;;;;;4823752;29;19933;-85
2022/02/07 04:38:11;;;;;;;;;;;5.50;99.90;;;;;;4524046;29;10000410;-85
2022/02/07 04:42:49;;;;;;;;;;;4.60;99.90;;;;;;4898288;29;19938;-85
2022/02/07 04:50:51;;;;;;;;;;;4.80;99.90;;;;;;5005631;28;19936;-85
2022/02/07 05:04:55;;;;;;;;;;;4.50;99.90;;;;;;4781234;30;19983;-84
2022/02/07 05:15:13;;;;;;;;;;;4.50;99.90;;;;;;4849182;29;20597;-85
2022/02/07 05:22:09;;;;;;;;;;;4.60;99.90;;;;;;4875269;29;19942;-84
2022/02/07 05:29:22;;;;;;;;;;;5.00;99.90;;;;;;4945025;29;19933;-85
2022/02/07 05:32:47;;;;;;;;;;;5.80;99.90;;;;;;4908690;29;19919;-84
2022/02/07 05:36:16;;;;;;;;;;;4.30;99.90;;;;;;4913283;29;19934;-85
2022/02/07 05:39:31;;;;;;;;;;;4.30;99.90;;;;;;4987394;28;19926;-85
2022/02/07 05:52:12;;;;;;;;;;;4.10;99.90;;;;;;4972947;28;19936;-86
2022/02/07 06:03:20;;;;;;;;;;;4.00;99.90;;;;;;4771941;29;19921;-84
2022/02/07 06:06:32;;;;;;;;;;;3.90;99.90;;;;;;4739498;30;19938;-85
2022/02/07 06:09:27;;;;;;;;;;;3.80;99.90;;;;;;4744674;30;19931;-85
2022/02/07 06:12:04;;;;;;;;;;;3.00;99.90;;;;;;4815829;29;19929;-84
2022/02/07 06:15:20;;;;;;;;;;;;;;;;;;;;;
2022/02/07 06:19:08;;;;;;;;;;;5.50;99.90;;;;;;4869481;29;19927;-85
2022/02/07 06:22:13;;;;;;;;;;;3.80;99.90;;;;;;4842784;29;19928;-85
2022/02/07 06:25:19;;;;;;;;;;;3.80;99.90;;;;;;4839596;29;19936;-84
2022/02/07 06:28:10;;;;;;;;;;;3.80;99.90;;;;;;4844973;29;19966;-85
2022/02/07 06:31:21;;;;;;;;;;;4.90;99.90;;;;;;4881700;29;19948;-84
2022/02/07 06:34:46;;;;;;;;;;;3.80;99.90;;;;;;4967021;28;19930;-81
2022/02/07 06:37:41;;;;;;;;;;;3.80;99.90;;;;;;5005038;28;19926;-85
2022/02/07 06:41:08;;;;;;;;;;;;;;;;;;;;;
2022/02/07 06:43:37;;;;;;;;;;;3.90;99.90;;;;;;4638499;28;10000509;-85
2022/02/07 06:47:02;;;;;;;;;;;3.70;99.90;;;;;;4971496;28;19937;-84
2022/02/07 06:50:20;;;;;;;;;;;4.20;99.90;;;;;;4986800;28;19926;-85
2022/02/07 06:53:25;;;;;;;;;;;3.60;99.90;;;;;;4987923;28;19924;-85
2022/02/07 06:56:04;;;;;;;;;;;3.50;99.90;;;;;;4970965;28;19932;-85
2022/02/07 06:58:51;;;;;;;;;;;2.80;99.90;;;;;;4987250;28;19929;-88
2022/02/07 07:01:39;;;;;;;;;;;3.90;99.90;;;;;;5006373;28;19932;-84
2022/02/07 07:04:10;;;;;;;;;;;3.40;99.90;;;;;;4989928;28;19930;-84
2022/02/07 07:07:18;;;;;;;;;;;4.40;99.90;;;;;;5004512;28;19926;-86
2022/02/07 07:10:57;;;;;;;;;;;3.50;99.90;;;;;;4946953;28;19930;-86
2022/02/07 07:18:40;;;;;;;;;;;3.60;99.90;;;;;;4925995;29;19934;-85
2022/02/07 07:22:32;;;;;;;;;;;3.70;99.90;;;;;;4887904;29;20220;-84
2022/02/07 07:25:41;;;;;;;;;;;4.20;99.90;;;;;;4874323;29;19932;-82
2022/02/07 07:28:13;;;;;;;;;;;3.80;99.90;;;;;;4893035;29;19943;-83
2022/02/07 07:30:59;;;;;;;;;;;2.30;99.90;;;;;;4899889;29;19928;-82
2022/02/07 07:34:19;;;;;;;;;;;3.30;99.90;;;;;;4872955;29;19963;-86
2022/02/07 07:37:26;;;;;;;;;;;3.60;99.90;;;;;;4887265;29;19936;-86
2022/02/07 07:40:04;;;;;;;;;;;3.30;99.90;;;;;;4889984;29;19927;-82
2022/02/07 07:42:35;;;;;;;;;;;1.60;99.90;;;;;;4863790;29;19939;-84
2022/02/07 07:45:17;;;;;;;;;;;3.40;99.90;;;;;;4940436;29;19919;-85
2022/02/07 07:48:37;;;;;;;;;;;3.20;99.90;;;;;;4907928;29;20055;-85
2022/02/07 07:51:49;;;;;;;;;;;3.50;99.90;;;;;;4900341;29;19931;-85
2022/02/07 07:54:57;;;;;;;;;;;3.40;99.90;;;;;;4882800;29;19932;-82
2022/02/07 08:03:07;;;;;;;;;;;3.50;99.90;;;;;;5000557;28;19930;-85
2022/02/07 08:11:35;;;;;;;;;;;3.70;99.90;;;;;;4948814;28;19933;-81
2022/02/07 08:14:06;;;;;;;;;;;3.60;99.90;;;;;;4952094;28;19937;-81
2022/02/07 08:17:01;;;;;;;;;;;3.70;99.90;;;;;;4984752;28;20518;-82
2022/02/07 08:19:33;;;;;;;;;;;3.70;99.90;;;;;;4952981;28;19930;-83
2022/02/07 08:22:29;;;;;;;;;;;3.80;99.90;;;;;;4970214;28;19926;-85
2022/02/07 08:27:55;;;;;;;;;;;3.80;99.90;;;;;;4991920;28;19926;-83
2022/02/07 08:30:24;;;;;;;;;;;3.90;99.90;;;;;;4950573;29;19955;-82
2022/02/07 08:33:20;;;;;;;;;;;4.00;99.90;;;;;;4965181;28;19933;-82
2022/02/07 08:35:59;;;;;;;;;;;4.30;99.90;;;;;;4970870;28;19946;-82
2022/02/07 08:38:28;;;;;;;;;;;4.20;99.90;;;;;;4969160;28;19946;-83
2022/02/07 08:40:59;;;;;;;;;;;4.20;99.90;;;;;;4969057;28;19926;-83
2022/02/07 08:43:27;;;;;;;;;;;4.20;99.90;;;;;;4968890;28;19926;-84
2022/02/07 08:45:59;;;;;;;;;;;4.20;99.90;;;;;;4993979;28;19929;-83
2022/02/07 08:48:27;;;;;;;;;;;2.90;99.90;;;;;;5021228;28;19937;-83
2022/02/07 08:50:57;;;;;;;;;;;4.30;99.90;;;;;;5008149;28;19929;-85
2022/02/07 08:53:34;;;;;;;;;;;4.70;99.90;;;;;;5008698;28;20175;-83
2022/02/07 08:56:07;;;;;;;;;;;4.40;99.90;;;;;;5009257;28;20051;-83
2022/02/07 08:58:49;;;;;;;;;;;4.50;99.90;;;;;;5020862;28;19937;-83
2022/02/07 09:01:28;;;;;;;;;;;4.60;99.90;;;;;;4994050;28;19929;-84
2022/02/07 09:06:41;;;;;;;;;;;5.80;99.90;;;;;;4989104;28;19940;-83
2022/02/07 09:09:20;;;;;;;;;;;4.80;99.90;;;;;;4989426;28;19933;-83
2022/02/07 09:11:51;;;;;;;;;;;4.60;99.90;;;;;;4990091;28;20442;-84
2022/02/07 09:14:26;;;;;;;;;;;6.50;99.90;;;;;;4975053;28;19934;-82
2022/02/07 09:17:05;;;;;;;;;;;5.00;99.90;;;;;;4989138;28;20395;-82
2022/02/07 09:19:36;;;;;;;;;;;5.20;99.90;;;;;;4968491;28;19925;-82
2022/02/07 09:22:04;;;;;;;;;;;5.20;99.90;;;;;;4988457;28;20290;-82
2022/02/07 09:24:33;;;;;;;;;;;5.30;99.90;;;;;;4970812;28;19933;-83
2022/02/07 09:27:01;;;;;;;;;;;5.30;99.90;;;;;;4987632;28;19929;-83
2022/02/07 09:29:30;;;;;;;;;;;5.50;99.90;;;;;;5011996;28;19925;-83
2022/02/07 09:32:15;;;;;;;;;;;5.40;99.90;;;;;;5005573;28;19926;-82
2022/02/07 09:35:04;;;;;;;;;;;5.40;99.90;;;;;;4972227;28;19936;-82
2022/02/07 09:37:34;;;;;;;;;;;5.60;99.90;;;;;;4983676;28;19929;-82
2022/02/07 09:40:04;;;;;;;;;;;5.60;99.90;;;;;;4987498;28;20627;-82
2022/02/07 09:42:34;;;;;;;;;;;5.60;99.90;;;;;;4986765;28;19941;-83
2022/02/07 09:45:12;;;;;;;;;;;6.10;99.90;;;;;;4968771;28;19957;-81
2022/02/07 09:47:40;;;;;;;;;;;4.10;99.90;;;;;;5018025;28;19937;-82
2022/02/07 09:50:33;;;;;;;;;;;6.00;99.90;;;;;;5002773;28;19932;-82
2022/02/07 09:53:01;;;;;;;;;;;6.30;99.90;;;;;;5003066;28;19933;-82
2022/02/07 09:55:29;;;;;;;;;;;6.20;99.90;;;;;;4985500;28;19930;-82
2022/02/07 09:57:57;;;;;;;;;;;6.40;99.90;;;;;;4979014;28;19933;-82
2022/02/07 10:00:30;;;;;;;;;;;6.40;99.90;;;;;;4998341;28;19941;-82
2022/02/07 10:03:11;;;;;;;;;;;6.40;99.90;;;;;;4967023;28;20379;-82
2022/02/07 10:06:00;;;;;;;;;;;6.60;99.90;;;;;;4983244;28;19940;-82
2022/02/07 10:11:20;;;;;;;;;;;6.60;99.90;;;;;;4972933;28;19941;-82
2022/02/07 10:14:05;;;;;;;;;;;6.90;99.90;;;;;;4987231;28;19937;-83
2022/02/07 10:19:24;;;;;;;;;;;7.00;99.90;;;;;;5004245;28;19926;-82
2022/02/07 10:36:52;;;;;;;;;;;7.00;99.90;;;;;;4985134;28;19937;-82
2022/02/07 10:39:35;;;;;;;;;;;7.00;99.90;;;;;;5002792;28;19940;-82
2022/02/07 10:45:00;;;;;;;;;;;7.70;99.90;;;;;;4987616;28;19934;-82
2022/02/07 10:47:40;;;;;;;;;;;6.00;99.90;;;;;;4986146;28;19950;-82
2022/02/07 10:50:16;;;;;;;;;;;7.10;99.90;;;;;;5001172;28;19926;-82
2022/02/07 10:52:47;;;;;;;;;;;7.20;99.90;;;;;;5023682;28;19929;-81
2022/02/07 10:55:33;;;;;;;;;;;8.80;99.90;;;;;;5005295;28;19930;-83
2022/02/07 10:58:03;;;;;;;;;;;7.10;99.90;;;;;;5023335;28;19929;-82
2022/02/07 11:00:40;;;;;;;;;;;7.20;99.90;;;;;;4986308;28;19930;-83
2022/02/07 11:03:13;;;;;;;;;;;7.20;99.90;;;;;;4986233;28;19926;-82
2022/02/07 11:05:48;;;;;;;;;;;7.30;99.90;;;;;;5004870;28;19930;-83
2022/02/07 11:08:28;;;;;;;;;;;7.40;99.90;;;;;;5017797;28;19926;-82
2022/02/07 11:16:18;;;;;;;;;;;7.60;99.90;;;;;;4984362;28;20404;-83
2022/02/07 11:21:45;;;;;;;;;;;7.60;99.90;;;;;;4967753;28;20096;-82
2022/02/07 11:24:52;;;;;;;;;;;7.70;99.90;;;;;;4986925;28;20212;-81
2022/02/07 11:27:36;;;;;;;;;;;7.80;99.90;;;;;;4985266;28;19930;-86
2022/02/07 11:30:11;;;;;;;;;;;7.40;99.90;;;;;;5009174;28;19941;-84
2022/02/07 11:32:41;;;;;;;;;;;7.80;99.90;;;;;;4967110;28;20569;-82
2022/02/07 11:35:16;;;;;;;;;;;8.50;99.90;;;;;;4965294;28;19930;-83
2022/02/07 11:38:10;;;;;;;;;;;8.00;99.90;;;;;;4656306;28;10000931;-84
2022/02/07 11:40:42;;;;;;;;;;;8.10;99.90;;;;;;4985826;28;19926;-82
2022/02/07 11:43:18;;;;;;;;;;;7.80;99.90;;;;;;4984641;28;19933;-82
2022/02/07 11:45:49;;;;;;;;;;;8.20;99.90;;;;;;4978289;28;19933;-82
2022/02/07 11:48:18;;;;;;;;;;;8.40;99.90;;;;;;4950007;28;21104;-83
2022/02/07 11:50:48;;;;;;;;;;;8.60;99.90;;;;;;4948981;28;19934;-82
2022/02/07 11:53:20;;;;;;;;;;;10.10;99.90;;;;;;4966753;28;19926;-82
2022/02/07 11:55:55;;;;;;;;;;;8.50;99.90;;;;;;4999612;28;19934;-83
2022/02/07 11:58:28;;;;;;;;;;;8.50;99.90;;;;;;4985089;28;19942;-82
2022/02/07 12:00:58;;;;;;;;;;;8.60;99.90;;;;;;4972066;28;19926;-81
2022/02/07 12:03:27;;;;;;;;;;;8.70;99.90;;;;;;5002477;28;19926;-81
2022/02/07 12:05:57;;;;;;;;;;;8.70;99.90;;;;;;4985922;28;19934;-82
2022/02/07 12:08:26;;;;;;;;;;;10.20;99.90;;;;;;4970681;28;19934;-82
2022/02/07 12:11:03;;;;;;;;;;;8.90;99.90;;;;;;4971336;28;19937;-82
2022/02/07 12:13:36;;;;;;;;;;;9.10;99.90;;;;;;4965067;28;19926;-83
2022/02/07 12:16:06;;;;;;;;;;;9.00;99.90;;;;;;4990014;28;19934;-82
2022/02/07 12:18:34;;;;;;;;;;;9.10;99.90;;;;;;4986277;28;19944;-82
2022/02/07 12:21:26;;;;;;;;;;;7.60;99.90;;;;;;4990292;28;20487;-82
2022/02/07 12:23:55;;;;;;;;;;;9.20;99.90;;;;;;4967911;28;19934;-82
2022/02/07 12:26:26;;;;;;;;;;;9.30;99.90;;;;;;4974436;28;19934;-84
2022/02/07 12:29:00;;;;;;;;;;;9.30;99.90;;;;;;4942899;28;19926;-82
2022/02/07 12:31:29;;;;;;;;;;;10.70;99.90;;;;;;5007002;28;19949;-82
2022/02/07 12:34:03;;;;;;;;;;;9.70;99.90;;;;;;4958224;28;19934;-82
2022/02/07 12:36:33;;;;;;;;;;;9.60;99.90;;;;;;4960707;28;19926;-83
2022/02/07 12:39:06;;;;;;;;;;;9.60;99.90;;;;;;4980547;28;19942;-83
2022/02/07 12:41:39;;;;;;;;;;;9.90;99.90;;;;;;4988868;28;20533;-86
2022/02/07 12:44:22;;;;;;;;;;;9.90;99.90;;;;;;4975280;28;19914;-83
2022/02/07 12:51:23;;;;;;;;;;;;;;;;;;;;;
2022/02/07 12:59:11;;;;;;;;;;;12.10;99.90;;;;;;4990476;28;19926;-85
2022/02/07 13:03:08;;;;;;;;;;;9.30;98.90;;;;;;4898601;29;20059;-83
2022/02/07 13:07:02;;;;;;;;;;;;;;;;;;;;;
2022/02/07 13:14:43;;;;;;;;;;;;;;;;;;;;;
2022/02/07 13:23:02;;;;;;;;;;;;;;;;;;;;;
2022/02/07 13:39:21;;;;;;;;;;;;;;;;;;;;;
2022/02/07 13:43:45;;;;;;;;;;;10.90;98.30;;;;;;4882128;29;19931;-86
2022/02/07 13:47:55;;;;;;;;;;;;;;;;;;;;;
2022/02/07 13:55:16;;;;;;;;;;;11.30;96.60;;;;;;4759593;30;19937;-84
2022/02/07 14:08:42;;;;;;;;;;;11.20;94.90;;;;;;4789897;30;19909;-87
2022/02/07 14:21:31;;;;;;;;;;;11.60;94.20;;;;;;4785658;30;19920;-86
2022/02/07 14:32:08;;;;;;;;;;;13.20;94.90;;;;;;4806463;29;20651;-83
2022/02/07 14:34:37;;;;;;;;;;;11.70;94.00;;;;;;4804297;29;19921;-82
2022/02/07 14:37:10;;;;;;;;;;;11.70;94.30;;;;;;4464454;29;9999875;-83
2022/02/07 14:39:51;;;;;;;;;;;10.80;95.30;;;;;;4857065;29;19928;-83
2022/02/07 14:42:20;;;;;;;;;;;12.90;95.00;;;;;;4853893;29;19972;-83
2022/02/07 14:50:25;;;;;;;;;;;11.70;95.90;;;;;;4909800;29;19931;-83
2022/02/07 14:52:56;;;;;;;;;;;11.60;96.40;;;;;;4920855;29;20375;-83
2022/02/07 14:55:25;;;;;;;;;;;11.50;96.60;;;;;;4943730;29;19938;-83
2022/02/07 14:57:53;;;;;;;;;;;11.40;97.00;;;;;;4929302;29;19934;-81
2022/02/07 15:00:31;;;;;;;;;;;11.30;97.60;;;;;;4936965;29;19927;-82
2022/02/07 15:03:00;;;;;;;;;;;11.20;97.80;;;;;;4953490;29;19937;-82
2022/02/07 15:05:29;;;;;;;;;;;11.10;97.90;;;;;;4914140;29;19935;-83
2022/02/07 15:07:58;;;;;;;;;;;11.00;97.90;;;;;;4923114;29;19931;-83
2022/02/07 15:10:28;;;;;;;;;;;12.00;98.60;;;;;;4911899;29;19933;-81
2022/02/07 15:12:59;;;;;;;;;;;10.80;98.40;;;;;;4931439;29;19939;-82
2022/02/07 15:15:29;;;;;;;;;;;10.60;98.60;;;;;;4930411;29;19931;-81
2022/02/07 15:18:05;;;;;;;;;;;10.70;99.20;;;;;;4927444;29;19931;-82
2022/02/07 15:20:40;;;;;;;;;;;10.60;99.70;;;;;;4908411;29;20091;-81
2022/02/07 15:23:13;;;;;;;;;;;10.60;99.90;;;;;;4928008;29;20067;-82
2022/02/07 15:25:41;;;;;;;;;;;10.50;99.90;;;;;;4940956;29;19942;-82
2022/02/07 15:28:12;;;;;;;;;;;10.50;99.90;;;;;;4941903;29;19931;-86
2022/02/07 15:30:45;;;;;;;;;;;10.50;99.90;;;;;;4922385;29;19935;-83
2022/02/07 15:33:15;;;;;;;;;;;10.50;99.90;;;;;;4944561;29;19942;-82
2022/02/07 15:35:45;;;;;;;;;;;10.50;99.90;;;;;;4931299;29;19935;-81
2022/02/07 15:38:15;;;;;;;;;;;10.40;99.90;;;;;;4911668;29;19927;-81
2022/02/07 15:40:43;;;;;;;;;;;10.40;99.90;;;;;;4924511;29;19946;-81
2022/02/07 15:43:11;;;;;;;;;;;10.40;99.90;;;;;;4924991;29;19935;-81
2022/02/07 15:45:41;;;;;;;;;;;10.40;99.90;;;;;;4910053;29;19935;-81
2022/02/07 15:48:10;;;;;;;;;;;10.40;99.90;;;;;;4907066;29;19938;-80
2022/02/07 15:50:39;;;;;;;;;;;10.30;99.90;;;;;;4920562;29;19931;-80
2022/02/07 15:53:16;;;;;;;;;;;10.40;99.90;;;;;;4927606;29;20055;-80
2022/02/07 15:55:45;;;;;;;;;;;10.40;99.90;;;;;;4926519;29;19943;-82
2022/02/07 15:58:13;;;;;;;;;;;10.40;99.90;;;;;;4936493;29;20010;-86
2022/02/07 16:00:44;;;;;;;;;;;10.40;99.90;;;;;;4923205;29;19931;-80
2022/02/07 16:03:17;;;;;;;;;;;10.40;99.90;;;;;;4917290;29;19938;-80
2022/02/07 16:05:48;;;;;;;;;;;10.40;99.90;;;;;;4874888;29;19975;-80
2022/02/07 16:08:17;;;;;;;;;;;10.40;99.90;;;;;;4906082;29;19932;-80
2022/02/07 16:10:47;;;;;;;;;;;10.50;99.90;;;;;;4906963;29;19928;-81
2022/02/07 16:15:45;;;;;;;;;;;9.80;99.90;;;;;;4925717;29;19931;-79
2022/02/07 16:18:19;;;;;;;;;;;10.20;99.90;;;;;;4925476;29;19927;-79
2022/02/07 16:21:22;;;;;;;;;;;10.20;99.90;;;;;;4908983;29;19931;-87
2022/02/07 16:24:05;;;;;;;;;;;10.30;99.90;;;;;;4894516;29;20399;-80
2022/02/07 16:26:36;;;;;;;;;;;9.60;99.90;;;;;;4905119;29;19939;-80
2022/02/07 16:29:06;;;;;;;;;;;10.10;99.90;;;;;;4892413;29;19936;-80
2022/02/07 16:31:34;;;;;;;;;;;10.10;99.90;;;;;;4919106;29;19927;-80
2022/02/07 16:34:02;;;;;;;;;;;10.10;99.90;;;;;;4918313;29;20009;-80
2022/02/07 16:36:36;;;;;;;;;;;10.10;99.90;;;;;;4918618;29;19927;-82
2022/02/07 16:39:05;;;;;;;;;;;10.10;99.90;;;;;;4589535;29;9999930;-81
2022/02/07 16:41:35;;;;;;;;;;;10.10;99.90;;;;;;4934118;28;20466;-82
2022/02/07 16:44:04;;;;;;;;;;;10.10;99.90;;;;;;5040731;28;19932;-84
2022/02/07 16:46:48;;;;;;;;;;;10.00;99.90;;;;;;5045040;28;19935;-81
2022/02/07 16:49:25;;;;;;;;;;;10.00;99.90;;;;;;5044248;28;19924;-80
2022/02/07 16:51:54;;;;;;;;;;;10.00;99.90;;;;;;5044575;28;19933;-84
2022/02/07 16:54:22;;;;;;;;;;;10.10;99.90;;;;;;5063280;28;19933;-83
2022/02/07 16:56:51;;;;;;;;;;;10.00;99.90;;;;;;5062674;28;19932;-83
2022/02/07 16:59:23;;;;;;;;;;;9.90;99.90;;;;;;5046564;28;19940;-80
2022/02/07 17:01:52;;;;;;;;;;;10.00;99.90;;;;;;5081840;28;19928;-80
2022/02/07 17:04:21;;;;;;;;;;;8.90;99.90;;;;;;5026114;28;19936;-80
2022/02/07 17:06:51;;;;;;;;;;;10.00;99.90;;;;;;5029262;28;19928;-82
2022/02/07 17:09:20;;;;;;;;;;;9.90;99.90;;;;;;5061405;28;19936;-82
2022/02/07 17:11:50;;;;;;;;;;;10.00;99.90;;;;;;5056950;28;19932;-79
2022/02/07 17:14:19;;;;;;;;;;;9.90;99.90;;;;;;5042177;28;19929;-81
2022/02/07 17:16:48;;;;;;;;;;;10.00;99.90;;;;;;5062133;28;19928;-79
2022/02/07 17:19:19;;;;;;;;;;;10.00;99.90;;;;;;5041862;28;19924;-78
2022/02/07 17:21:48;;;;;;;;;;;10.00;99.90;;;;;;5058697;28;20236;-79
2022/02/07 17:24:17;;;;;;;;;;;9.90;99.90;;;;;;5063148;28;19932;-79
2022/02/07 17:26:46;;;;;;;;;;;9.90;99.90;;;;;;5045316;28;19932;-78
2022/02/07 17:29:15;;;;;;;;;;;10.00;99.90;;;;;;5042643;28;19929;-81
2022/02/07 17:31:52;;;;;;;;;;;10.00;99.90;;;;;;5061381;28;19925;-80
2022/02/07 17:34:24;;;;;;;;;;;10.00;99.90;;;;;;5054630;28;19925;-79
2022/02/07 17:37:27;;;;;;;;;;;10.10;99.90;;;;;;5060141;28;19936;-78
2022/02/07 17:40:53;;;;;;;;;;;;;;;;;;;;;
2022/02/07 17:43:55;;;;;;;;;;;10.30;99.90;;;;;;5061963;28;19924;-84
2022/02/07 17:46:28;;;;;;;;;;;10.00;99.90;;;;;;5048102;28;19932;-83
2022/02/07 17:49:12;;;;;;;;;;;9.90;99.90;;;;;;5058542;28;19924;-82
2022/02/07 17:51:57;;;;;;;;;;;9.90;99.90;;;;;;5051713;28;19935;-83
2022/02/07 17:54:34;;;;;;;;;;;9.90;99.90;;;;;;5049012;28;19929;-84
2022/02/07 17:57:07;;;;;;;;;;;10.00;99.90;;;;;;5038063;28;20524;-83
2022/02/07 18:04:03;;;;;;;;;;;;;;;;;;;;;
2022/02/07 18:07:10;;;;;;;;;;;10.00;99.90;;;;;;5032479;28;19948;-83
2022/02/07 18:10:10;;;;;;;;;;;10.00;99.90;;;;;;5032705;28;19924;-84
2022/02/07 18:16:56;;;;;;;;;;;10.00;99.90;;;;;;4993993;28;19927;-83
2022/02/07 18:19:32;;;;;;;;;;;10.00;99.90;;;;;;4992130;28;19932;-86
2022/02/07 18:22:20;;;;;;;;;;;10.00;99.90;;;;;;5025166;28;19925;-84
2022/02/07 18:25:09;;;;;;;;;;;9.90;99.90;;;;;;4998020;28;19981;-84
2022/02/07 18:27:40;;;;;;;;;;;8.40;99.90;;;;;;5007659;28;20044;-81
2022/02/07 18:30:10;;;;;;;;;;;9.90;99.90;;;;;;5023343;28;19939;-80
2022/02/07 18:32:39;;;;;;;;;;;9.90;99.90;;;;;;5058280;28;21828;-81
2022/02/07 18:35:13;;;;;;;;;;;9.90;99.90;;;;;;5027681;28;19921;-81
2022/02/07 18:37:52;;;;;;;;;;;9.90;99.90;;;;;;5052002;23;19933;-91
2022/02/07 18:40:30;;;;;;;;;;;9.90;99.90;;;;;;5008682;28;19925;-91
2022/02/07 18:43:02;;;;;;;;;;;9.90;99.90;;;;;;5009041;28;19925;-91
2022/02/07 18:45:36;;;;;;;;;;;9.90;99.90;;;;;;5057914;28;19943;-91
2022/02/07 18:48:06;;;;;;;;;;;9.80;99.90;;;;;;5029169;28;19928;-90
2022/02/07 18:50:36;;;;;;;;;;;9.80;99.90;;;;;;5026456;28;19913;-88
2022/02/07 18:53:07;;;;;;;;;;;9.80;99.90;;;;;;5023069;28;19925;-91
2022/02/07 18:55:44;;;;;;;;;;;9.70;99.90;;;;;;5046148;28;19925;-91
2022/02/07 18:58:37;;;;;;;;;;;9.80;99.90;;;;;;5060273;28;19932;-91
2022/02/07 19:01:14;;;;;;;;;;;9.80;99.90;;;;;;5058209;28;19932;-90
2022/02/07 19:03:46;;;;;;;;;;;9.90;99.90;;;;;;5028114;28;19921;-91
2022/02/07 19:08:56;;;;;;;;;;;9.50;99.90;;;;;;5038843;28;19925;-92
2022/02/07 19:11:24;;;;;;;;;;;9.90;99.90;;;;;;5057109;28;19928;-91
2022/02/07 19:13:56;;;;;;;;;;;9.80;99.90;;;;;;5042330;28;19935;-91
2022/02/07 19:16:34;;;;;;;;;;;9.90;99.90;;;;;;5042777;28;19924;-90
2022/02/07 19:19:14;;;;;;;;;;;10.00;99.90;;;;;;5024493;28;19935;-90
2022/02/07 19:21:48;;;;;;;;;;;10.00;99.90;;;;;;5029684;28;19925;-91
2022/02/07 19:24:35;;;;;;;;;;;10.00;99.90;;;;;;5025920;28;19929;-91
2022/02/07 19:29:51;;;;;;;;;;;10.00;99.90;;;;;;5025949;28;19929;-90
2022/02/07 19:32:19;;;;;;;;;;;9.40;99.90;;;;;;5042570;28;19929;-90
2022/02/07 19:37:15;;;;;;;;;;;10.10;99.90;;;;;;5038523;28;19943;-91
2022/02/07 19:39:45;;;;;;;;;;;10.10;99.90;;;;;;5032015;28;19925;-91
2022/02/07 19:43:12;;;;;;;;;;;10.10;99.90;;;;;;5033659;28;19932;-91
2022/02/07 19:45:25;;;;;;;;;;;10.00;99.90;;;;;;5029596;28;19928;-89
2022/02/07 19:47:54;;;;;;;;;;;10.00;99.90;;;;;;5064264;28;19929;-90
2022/02/07 19:50:23;;;;;;;;;;;10.00;99.90;;;;;;5064273;28;19933;-90
2022/02/07 19:52:53;;;;;;;;;;;10.00;99.90;;;;;;5064489;28;19925;-90
2022/02/07 19:55:27;;;;;;;;;;;11.00;99.90;;;;;;5035110;28;19925;-88
2022/02/07 19:57:59;;;;;;;;;;;10.00;99.90;;;;;;5045033;28;19925;-89
2022/02/07 20:00:32;;;;;;;;;;;10.00;99.90;;;;;;5069650;28;19933;-90
2022/02/07 20:03:05;;;;;;;;;;;10.00;99.90;;;;;;5038754;28;19931;-89
2022/02/07 20:05:37;;;;;;;;;;;10.00;99.90;;;;;;5033054;28;19929;-90
2022/02/07 20:08:07;;;;;;;;;;;10.20;99.90;;;;;;5066213;28;19925;-90
2022/02/07 20:10:37;;;;;;;;;;;10.10;99.90;;;;;;5053810;28;19933;-89
2022/02/07 20:13:07;;;;;;;;;;;10.20;99.90;;;;;;5069197;28;19928;-90
2022/02/07 20:15:37;;;;;;;;;;;10.20;99.90;;;;;;5041437;28;19935;-89
2022/02/07 20:18:05;;;;;;;;;;;10.20;99.90;;;;;;5038575;28;20212;-89
2022/02/07 20:20:36;;;;;;;;;;;10.30;99.90;;;;;;5054905;28;19937;-90
2022/02/07 20:23:05;;;;;;;;;;;10.30;99.90;;;;;;5033785;28;19925;-89
2022/02/07 20:25:33;;;;;;;;;;;10.40;99.90;;;;;;5026755;28;20386;-89
2022/02/07 20:28:03;;;;;;;;;;;10.50;99.90;;;;;;5057407;28;19917;-90
2022/02/07 20:30:34;;;;;;;;;;;10.50;99.90;;;;;;5046102;28;19925;-91
2022/02/07 20:33:23;;;;;;;;;;;10.50;99.90;;;;;;5058630;28;19931;-90
2022/02/07 20:35:51;;;;;;;;;;;10.60;99.90;;;;;;5037206;28;19933;-89
2022/02/07 20:38:21;;;;;;;;;;;10.60;99.90;;;;;;5052256;28;19935;-89
2022/02/07 20:40:50;;;;;;;;;;;10.60;99.90;;;;;;5034422;28;19921;-90
2022/02/07 20:43:18;;;;;;;;;;;10.70;99.90;;;;;;5019032;28;19929;-88
2022/02/07 20:45:51;;;;;;;;;;;10.60;99.90;;;;;;5017450;28;19931;-89
2022/02/07 20:48:40;;;;;;;;;;;10.60;99.90;;;;;;5029127;28;19925;-88
2022/02/07 20:51:22;;;;;;;;;;;11.60;99.90;;;;;;5042372;28;19925;-90
2022/02/07 20:53:53;;;;;;;;;;;10.70;99.90;;;;;;5041657;28;19921;-89
2022/02/07 20:56:21;;;;;;;;;;;10.70;99.90;;;;;;5020320;28;19952;-89
2022/02/07 20:59:09;;;;;;;;;;;10.70;99.90;;;;;;5013864;28;19929;-88
2022/02/07 21:01:40;;;;;;;;;;;10.80;99.90;;;;;;5040373;28;19925;-89
2022/02/07 21:04:12;;;;;;;;;;;10.80;99.90;;;;;;5044891;28;19932;-89
2022/02/07 21:06:43;;;;;;;;;;;10.80;99.90;;;;;;5028343;28;20308;-89
2022/02/07 21:09:14;;;;;;;;;;;10.80;99.90;;;;;;5046646;28;19937;-89
2022/02/07 21:11:45;;;;;;;;;;;10.70;99.90;;;;;;5000275;28;19936;-88
2022/02/07 21:14:14;;;;;;;;;;;10.90;99.90;;;;;;5046218;28;19928;-88
2022/02/07 21:16:45;;;;;;;;;;;10.80;99.90;;;;;;5027886;28;19925;-87
2022/02/07 21:19:22;;;;;;;;;;;10.90;99.90;;;;;;5050891;28;19932;-88
2022/02/07 21:22:27;;;;;;;;;;;10.90;99.90;;;;;;5044618;28;19928;-88
2022/02/07 21:24:59;;;;;;;;;;;11.20;99.90;;;;;;5041561;28;19933;-88
2022/02/07 21:27:37;;;;;;;;;;;10.90;99.90;;;;;;5020395;28;20010;-89
2022/02/07 21:30:05;;;;;;;;;;;11.50;99.90;;;;;;5040095;28;19932;-90
2022/02/07 21:32:33;;;;;;;;;;;11.00;99.90;;;;;;5019904;28;19936;-88
2022/02/07 21:35:06;;;;;;;;;;;11.00;99.90;;;;;;5040100;28;19925;-89
2022/02/07 21:37:34;;;;;;;;;;;11.00;99.90;;;;;;5039969;28;19929;-88
2022/02/07 21:40:04;;;;;;;;;;;11.00;99.90;;;;;;5013268;28;19929;-88
2022/02/07 21:42:37;;;;;;;;;;;11.10;99.90;;;;;;5028541;28;20332;-86
2022/02/07 21:45:08;;;;;;;;;;;11.10;99.90;;;;;;5025151;28;20407;-89
2022/02/07 21:47:37;;;;;;;;;;;11.00;99.90;;;;;;5029217;28;19925;-87
2022/02/07 21:50:05;;;;;;;;;;;11.10;99.90;;;;;;5029989;28;19939;-88
2022/02/07 21:52:35;;;;;;;;;;;11.10;99.90;;;;;;5044246;28;19940;-88
2022/02/07 21:55:03;;;;;;;;;;;11.10;99.90;;;;;;5010516;28;19929;-87
2022/02/07 21:57:31;;;;;;;;;;;11.10;99.90;;;;;;5031556;28;19933;-87
2022/02/07 22:00:07;;;;;;;;;;;11.10;99.90;;;;;;5050599;28;19932;-88
2022/02/07 22:02:35;;;;;;;;;;;9.60;99.90;;;;;;5052096;28;19925;-90
2022/02/07 22:05:07;;;;;;;;;;;11.30;99.90;;;;;;5018850;28;19913;-89
2022/02/07 22:07:36;;;;;;;;;;;11.10;99.90;;;;;;5042108;28;19913;-88
2022/02/07 22:10:07;;;;;;;;;;;11.10;99.90;;;;;;5059321;28;19925;-90
2022/02/07 22:12:48;;;;;;;;;;;11.10;99.90;;;;;;5042699;28;19935;-88
2022/02/07 22:20:25;;;;;;;;;;;11.10;99.90;;;;;;5010115;28;19929;-88
2022/02/07 22:22:55;;;;;;;;;;;10.80;99.90;;;;;;5024983;28;19933;-90
2022/02/07 22:25:24;;;;;;;;;;;11.10;99.90;;;;;;5031416;28;19929;-90
2022/02/07 22:27:55;;;;;;;;;;;11.10;99.90;;;;;;5032671;28;19933;-90
2022/02/07 22:30:36;;;;;;;;;;;11.10;99.90;;;;;;5018769;28;19924;-88